sensor_id;sensor_type;location;lat;lon;timestamp;P1;durP1;ratioP1;P2;durP2;ratioP2
57599;SDS011;43426;43.594;24.334;2023-03-21T00:01:27;31.25;;;21.20;;
57599;SDS011;43426;43.594;24.334;2023-03-21T00:03:52;27.92;;;21.02;;
57599;SDS011;43426;43.594;24.334;2023-03-21T00:06:18;25.58;;;19.42;;
57599;SDS011;43426;43.594;24.334;2023-03-21T00:08:43;28.43;;;20.97;;
57599;SDS011;43426;43.594;24.334;2023-03-21T00:11:10;33.13;;;21.80;;
57599;SDS011;43426;43.594;24.334;2023-03-21T00:13:37;35.05;;;21.33;;
57599;SDS011;43426;43.594;24.334;2023-03-21T00:16:10;30.58;;;20.75;;
57599;SDS011;43426;43.594;24.334;2023-03-21T00:18:44;34.60;;;21.77;;
57599;SDS011;43426;43.594;24.334;2023-03-21T00:21:16;31.25;;;20.90;;
57599;SDS011;43426;43.594;24.334;2023-03-21T00:23:44;31.25;;;22.42;;
57599;SDS011;43426;43.594;24.334;2023-03-21T00:26:10;34.13;;;22.52;;
57599;SDS011;43426;43.594;24.334;2023-03-21T00:28:37;32.78;;;21.98;;
57599;SDS011;43426;43.594;24.334;2023-03-21T00:31:04;28.80;;;21.63;;
57599;SDS011;43426;43.594;24.334;2023-03-21T00:35:56;25.08;;;19.45;;
57599;SDS011;43426;43.594;24.334;2023-03-21T00:38:22;29.30;;;19.37;;
57599;SDS011;43426;43.594;24.334;2023-03-21T00:40:48;27.20;;;20.13;;
57599;SDS011;43426;43.594;24.334;2023-03-21T00:43:14;30.88;;;20.10;;
57599;SDS011;43426;43.594;24.334;2023-03-21T00:45:41;30.23;;;20.67;;
57599;SDS011;43426;43.594;24.334;2023-03-21T00:50:33;31.88;;;21.17;;
57599;SDS011;43426;43.594;24.334;2023-03-21T00:52:58;32.47;;;21.73;;
57599;SDS011;43426;43.594;24.334;2023-03-21T00:55:24;33.80;;;23.67;;
57599;SDS011;43426;43.594;24.334;2023-03-21T00:57:50;32.40;;;21.67;;
57599;SDS011;43426;43.594;24.334;2023-03-21T01:00:16;34.65;;;22.20;;
57599;SDS011;43426;43.594;24.334;2023-03-21T01:02:42;29.92;;;22.13;;
57599;SDS011;43426;43.594;24.334;2023-03-21T01:05:24;33.33;;;21.20;;
57599;SDS011;43426;43.594;24.334;2023-03-21T01:08:10;34.20;;;21.58;;
57599;SDS011;43426;43.594;24.334;2023-03-21T01:10:38;29.73;;;21.92;;
57599;SDS011;43426;43.594;24.334;2023-03-21T01:13:04;32.42;;;21.23;;
57599;SDS011;43426;43.594;24.334;2023-03-21T01:15:30;26.95;;;21.30;;
57599;SDS011;43426;43.594;24.334;2023-03-21T01:17:55;27.67;;;20.67;;
57599;SDS011;43426;43.594;24.334;2023-03-21T01:20:20;31.33;;;20.35;;
57599;SDS011;43426;43.594;24.334;2023-03-21T01:22:46;24.30;;;20.17;;
57599;SDS011;43426;43.594;24.334;2023-03-21T01:25:11;27.13;;;20.00;;
57599;SDS011;43426;43.594;24.334;2023-03-21T01:27:37;28.70;;;21.13;;
57599;SDS011;43426;43.594;24.334;2023-03-21T01:30:03;33.55;;;21.58;;
57599;SDS011;43426;43.594;24.334;2023-03-21T01:32:28;34.25;;;22.00;;
57599;SDS011;43426;43.594;24.334;2023-03-21T01:34:54;27.33;;;20.45;;
57599;SDS011;43426;43.594;24.334;2023-03-21T01:37:19;29.60;;;19.50;;
57599;SDS011;43426;43.594;24.334;2023-03-21T01:39:45;26.93;;;19.33;;
57599;SDS011;43426;43.594;24.334;2023-03-21T01:42:13;25.37;;;19.53;;
57599;SDS011;43426;43.594;24.334;2023-03-21T01:44:56;30.65;;;20.80;;
57599;SDS011;43426;43.594;24.334;2023-03-21T01:47:25;30.30;;;21.10;;
57599;SDS011;43426;43.594;24.334;2023-03-21T01:49:51;33.20;;;22.13;;
57599;SDS011;43426;43.594;24.334;2023-03-21T01:52:21;30.05;;;20.08;;
57599;SDS011;43426;43.594;24.334;2023-03-21T01:54:51;28.42;;;20.40;;
57599;SDS011;43426;43.594;24.334;2023-03-21T01:57:24;28.00;;;19.48;;
57599;SDS011;43426;43.594;24.334;2023-03-21T01:59:56;27.23;;;20.25;;
57599;SDS011;43426;43.594;24.334;2023-03-21T02:02:31;28.17;;;20.17;;
57599;SDS011;43426;43.594;24.334;2023-03-21T02:04:57;27.20;;;19.95;;
57599;SDS011;43426;43.594;24.334;2023-03-21T02:07:28;25.40;;;18.85;;
57599;SDS011;43426;43.594;24.334;2023-03-21T02:09:55;26.92;;;18.95;;
57599;SDS011;43426;43.594;24.334;2023-03-21T02:12:23;23.77;;;17.98;;
57599;SDS011;43426;43.594;24.334;2023-03-21T02:14:49;26.45;;;18.65;;
57599;SDS011;43426;43.594;24.334;2023-03-21T02:17:26;28.35;;;19.33;;
57599;SDS011;43426;43.594;24.334;2023-03-21T02:31:25;26.45;;;19.08;;
57599;SDS011;43426;43.594;24.334;2023-03-21T02:34:06;22.20;;;17.58;;
57599;SDS011;43426;43.594;24.334;2023-03-21T02:36:59;26.20;;;18.45;;
57599;SDS011;43426;43.594;24.334;2023-03-21T02:47:29;24.67;;;17.95;;
57599;SDS011;43426;43.594;24.334;2023-03-21T02:52:36;24.10;;;18.25;;
57599;SDS011;43426;43.594;24.334;2023-03-21T02:55:03;28.08;;;18.58;;
57599;SDS011;43426;43.594;24.334;2023-03-21T02:57:38;31.55;;;20.15;;
57599;SDS011;43426;43.594;24.334;2023-03-21T03:00:06;28.73;;;20.75;;
57599;SDS011;43426;43.594;24.334;2023-03-21T03:02:36;26.75;;;20.55;;
57599;SDS011;43426;43.594;24.334;2023-03-21T03:05:13;33.50;;;23.27;;
57599;SDS011;43426;43.594;24.334;2023-03-21T03:18:27;34.45;;;23.88;;
57599;SDS011;43426;43.594;24.334;2023-03-21T03:26:01;31.70;;;23.85;;
57599;SDS011;43426;43.594;24.334;2023-03-21T03:28:34;34.03;;;25.10;;
57599;SDS011;43426;43.594;24.334;2023-03-21T03:31:03;30.77;;;24.05;;
57599;SDS011;43426;43.594;24.334;2023-03-21T03:33:29;33.92;;;24.75;;
57599;SDS011;43426;43.594;24.334;2023-03-21T03:35:58;36.80;;;23.55;;
57599;SDS011;43426;43.594;24.334;2023-03-21T03:38:24;37.03;;;23.23;;
57599;SDS011;43426;43.594;24.334;2023-03-21T03:40:56;30.75;;;23.35;;
57599;SDS011;43426;43.594;24.334;2023-03-21T03:43:33;32.72;;;23.30;;
57599;SDS011;43426;43.594;24.334;2023-03-21T03:46:07;34.03;;;23.30;;
57599;SDS011;43426;43.594;24.334;2023-03-21T03:48:42;34.58;;;23.42;;
57599;SDS011;43426;43.594;24.334;2023-03-21T03:51:17;30.48;;;23.65;;
57599;SDS011;43426;43.594;24.334;2023-03-21T03:53:50;36.17;;;24.63;;
57599;SDS011;43426;43.594;24.334;2023-03-21T03:56:21;30.55;;;24.17;;
57599;SDS011;43426;43.594;24.334;2023-03-21T03:58:47;34.17;;;24.67;;
57599;SDS011;43426;43.594;24.334;2023-03-21T04:01:13;38.15;;;25.05;;
57599;SDS011;43426;43.594;24.334;2023-03-21T04:03:39;39.97;;;24.50;;
57599;SDS011;43426;43.594;24.334;2023-03-21T04:06:06;39.00;;;25.50;;
57599;SDS011;43426;43.594;24.334;2023-03-21T04:08:32;46.17;;;26.67;;
57599;SDS011;43426;43.594;24.334;2023-03-21T04:10:57;38.38;;;26.63;;
57599;SDS011;43426;43.594;24.334;2023-03-21T04:13:25;42.80;;;28.98;;
57599;SDS011;43426;43.594;24.334;2023-03-21T04:15:50;39.20;;;26.25;;
57599;SDS011;43426;43.594;24.334;2023-03-21T04:18:16;40.23;;;25.00;;
57599;SDS011;43426;43.594;24.334;2023-03-21T04:20:41;34.67;;;24.50;;
57599;SDS011;43426;43.594;24.334;2023-03-21T04:23:08;32.38;;;23.30;;
57599;SDS011;43426;43.594;24.334;2023-03-21T04:25:35;35.97;;;25.15;;
57599;SDS011;43426;43.594;24.334;2023-03-21T04:28:01;29.05;;;22.23;;
57599;SDS011;43426;43.594;24.334;2023-03-21T04:30:27;36.13;;;23.70;;
57599;SDS011;43426;43.594;24.334;2023-03-21T04:32:53;33.70;;;25.05;;
57599;SDS011;43426;43.594;24.334;2023-03-21T04:35:20;35.03;;;23.88;;
57599;SDS011;43426;43.594;24.334;2023-03-21T04:37:47;32.63;;;23.42;;
57599;SDS011;43426;43.594;24.334;2023-03-21T04:40:12;39.95;;;26.10;;
57599;SDS011;43426;43.594;24.334;2023-03-21T04:42:41;42.55;;;25.42;;
57599;SDS011;43426;43.594;24.334;2023-03-21T04:45:07;40.08;;;25.45;;
57599;SDS011;43426;43.594;24.334;2023-03-21T04:47:33;42.58;;;26.83;;
57599;SDS011;43426;43.594;24.334;2023-03-21T04:49:58;43.50;;;27.13;;
57599;SDS011;43426;43.594;24.334;2023-03-21T04:52:24;53.08;;;29.42;;
57599;SDS011;43426;43.594;24.334;2023-03-21T04:54:50;48.78;;;28.67;;
57599;SDS011;43426;43.594;24.334;2023-03-21T04:57:15;41.10;;;27.08;;
57599;SDS011;43426;43.594;24.334;2023-03-21T04:59:41;40.08;;;26.55;;
57599;SDS011;43426;43.594;24.334;2023-03-21T05:02:06;31.80;;;25.27;;
57599;SDS011;43426;43.594;24.334;2023-03-21T05:04:32;33.00;;;24.42;;
57599;SDS011;43426;43.594;24.334;2023-03-21T05:06:57;36.57;;;24.03;;
57599;SDS011;43426;43.594;24.334;2023-03-21T05:09:23;35.22;;;25.20;;
57599;SDS011;43426;43.594;24.334;2023-03-21T05:11:49;40.05;;;25.63;;
57599;SDS011;43426;43.594;24.334;2023-03-21T05:14:16;38.22;;;25.33;;
57599;SDS011;43426;43.594;24.334;2023-03-21T05:16:43;36.97;;;24.55;;
57599;SDS011;43426;43.594;24.334;2023-03-21T05:19:16;41.42;;;26.23;;
57599;SDS011;43426;43.594;24.334;2023-03-21T05:21:44;37.95;;;27.00;;
57599;SDS011;43426;43.594;24.334;2023-03-21T05:24:11;37.78;;;27.63;;
57599;SDS011;43426;43.594;24.334;2023-03-21T05:26:40;64.10;;;31.10;;
57599;SDS011;43426;43.594;24.334;2023-03-21T05:29:07;50.28;;;29.48;;
57599;SDS011;43426;43.594;24.334;2023-03-21T05:33:58;32.25;;;23.67;;
57599;SDS011;43426;43.594;24.334;2023-03-21T05:36:24;33.75;;;25.33;;
57599;SDS011;43426;43.594;24.334;2023-03-21T05:38:49;40.53;;;24.52;;
57599;SDS011;43426;43.594;24.334;2023-03-21T05:41:15;37.28;;;25.48;;
57599;SDS011;43426;43.594;24.334;2023-03-21T05:43:42;36.78;;;25.40;;
57599;SDS011;43426;43.594;24.334;2023-03-21T05:46:08;34.13;;;24.10;;
57599;SDS011;43426;43.594;24.334;2023-03-21T05:48:34;38.50;;;26.70;;
57599;SDS011;43426;43.594;24.334;2023-03-21T05:51:00;40.85;;;26.48;;
57599;SDS011;43426;43.594;24.334;2023-03-21T05:53:27;35.22;;;26.77;;
57599;SDS011;43426;43.594;24.334;2023-03-21T05:55:52;40.75;;;28.50;;
57599;SDS011;43426;43.594;24.334;2023-03-21T05:58:17;37.95;;;26.92;;
57599;SDS011;43426;43.594;24.334;2023-03-21T06:00:43;34.53;;;25.63;;
57599;SDS011;43426;43.594;24.334;2023-03-21T06:03:08;38.85;;;26.50;;
57599;SDS011;43426;43.594;24.334;2023-03-21T06:05:34;42.58;;;26.70;;
57599;SDS011;43426;43.594;24.334;2023-03-21T06:07:59;40.72;;;29.17;;
57599;SDS011;43426;43.594;24.334;2023-03-21T06:10:25;43.47;;;29.20;;
57599;SDS011;43426;43.594;24.334;2023-03-21T06:12:50;37.28;;;27.40;;
57599;SDS011;43426;43.594;24.334;2023-03-21T06:15:16;37.30;;;26.83;;
57599;SDS011;43426;43.594;24.334;2023-03-21T06:17:41;35.55;;;25.17;;
57599;SDS011;43426;43.594;24.334;2023-03-21T06:20:07;43.28;;;24.90;;
57599;SDS011;43426;43.594;24.334;2023-03-21T06:22:33;35.97;;;24.88;;
57599;SDS011;43426;43.594;24.334;2023-03-21T06:27:24;36.83;;;24.58;;
57599;SDS011;43426;43.594;24.334;2023-03-21T06:29:50;38.15;;;25.67;;
57599;SDS011;43426;43.594;24.334;2023-03-21T06:32:15;32.58;;;23.52;;
57599;SDS011;43426;43.594;24.334;2023-03-21T06:34:41;31.08;;;23.58;;
57599;SDS011;43426;43.594;24.334;2023-03-21T06:37:07;33.97;;;24.38;;
57599;SDS011;43426;43.594;24.334;2023-03-21T06:39:33;33.65;;;23.30;;
57599;SDS011;43426;43.594;24.334;2023-03-21T06:41:59;32.58;;;23.35;;
57599;SDS011;43426;43.594;24.334;2023-03-21T06:44:25;29.23;;;22.80;;
57599;SDS011;43426;43.594;24.334;2023-03-21T06:49:16;26.60;;;20.00;;
57599;SDS011;43426;43.594;24.334;2023-03-21T06:51:42;30.33;;;21.17;;
57599;SDS011;43426;43.594;24.334;2023-03-21T06:54:07;29.50;;;20.08;;
57599;SDS011;43426;43.594;24.334;2023-03-21T06:56:33;26.63;;;20.40;;
57599;SDS011;43426;43.594;24.334;2023-03-21T06:58:58;28.52;;;21.00;;
57599;SDS011;43426;43.594;24.334;2023-03-21T07:01:24;28.95;;;20.45;;
57599;SDS011;43426;43.594;24.334;2023-03-21T07:03:51;27.50;;;20.67;;
57599;SDS011;43426;43.594;24.334;2023-03-21T07:08:42;25.70;;;19.27;;
57599;SDS011;43426;43.594;24.334;2023-03-21T07:11:08;25.35;;;18.75;;
57599;SDS011;43426;43.594;24.334;2023-03-21T07:15:59;30.48;;;18.55;;
57599;SDS011;43426;43.594;24.334;2023-03-21T07:20:50;21.58;;;17.27;;
57599;SDS011;43426;43.594;24.334;2023-03-21T07:25:49;17.45;;;15.35;;
57599;SDS011;43426;43.594;24.334;2023-03-21T07:28:14;22.02;;;15.77;;
57599;SDS011;43426;43.594;24.334;2023-03-21T07:30:41;19.70;;;16.92;;
57599;SDS011;43426;43.594;24.334;2023-03-21T07:33:07;19.30;;;16.15;;
57599;SDS011;43426;43.594;24.334;2023-03-21T07:38:00;22.75;;;16.02;;
57599;SDS011;43426;43.594;24.334;2023-03-21T07:40:25;19.40;;;15.98;;
57599;SDS011;43426;43.594;24.334;2023-03-21T07:45:16;19.67;;;14.68;;
57599;SDS011;43426;43.594;24.334;2023-03-21T07:47:45;17.27;;;14.27;;
57599;SDS011;43426;43.594;24.334;2023-03-21T07:50:11;15.32;;;13.73;;
57599;SDS011;43426;43.594;24.334;2023-03-21T07:55:03;15.63;;;13.98;;
57599;SDS011;43426;43.594;24.334;2023-03-21T07:57:28;15.65;;;14.00;;
57599;SDS011;43426;43.594;24.334;2023-03-21T07:59:54;16.00;;;13.93;;
57599;SDS011;43426;43.594;24.334;2023-03-21T08:02:19;17.60;;;14.40;;
57599;SDS011;43426;43.594;24.334;2023-03-21T08:04:45;15.70;;;13.88;;
57599;SDS011;43426;43.594;24.334;2023-03-21T08:07:10;19.23;;;13.40;;
57599;SDS011;43426;43.594;24.334;2023-03-21T08:09:36;19.02;;;13.63;;
57599;SDS011;43426;43.594;24.334;2023-03-21T08:12:02;17.33;;;14.32;;
57599;SDS011;43426;43.594;24.334;2023-03-21T08:14:28;17.30;;;13.73;;
57599;SDS011;43426;43.594;24.334;2023-03-21T08:16:54;17.13;;;14.15;;
57599;SDS011;43426;43.594;24.334;2023-03-21T08:19:20;16.67;;;13.80;;
57599;SDS011;43426;43.594;24.334;2023-03-21T08:21:48;17.70;;;14.25;;
57599;SDS011;43426;43.594;24.334;2023-03-21T08:24:15;19.92;;;15.70;;
57599;SDS011;43426;43.594;24.334;2023-03-21T08:26:41;16.75;;;14.85;;
57599;SDS011;43426;43.594;24.334;2023-03-21T08:29:07;24.27;;;15.40;;
57599;SDS011;43426;43.594;24.334;2023-03-21T08:33:58;18.77;;;14.98;;
57599;SDS011;43426;43.594;24.334;2023-03-21T08:36:24;17.42;;;15.50;;
57599;SDS011;43426;43.594;24.334;2023-03-21T08:38:49;21.13;;;15.07;;
57599;SDS011;43426;43.594;24.334;2023-03-21T08:41:18;16.33;;;14.02;;
57599;SDS011;43426;43.594;24.334;2023-03-21T08:43:46;17.48;;;14.55;;
57599;SDS011;43426;43.594;24.334;2023-03-21T08:46:12;20.52;;;15.30;;
57599;SDS011;43426;43.594;24.334;2023-03-21T08:51:03;17.67;;;13.77;;
57599;SDS011;43426;43.594;24.334;2023-03-21T08:53:32;16.25;;;12.82;;
57599;SDS011;43426;43.594;24.334;2023-03-21T08:58:23;18.73;;;13.57;;
57599;SDS011;43426;43.594;24.334;2023-03-21T09:00:48;16.55;;;13.05;;
57599;SDS011;43426;43.594;24.334;2023-03-21T09:05:40;14.67;;;12.80;;
57599;SDS011;43426;43.594;24.334;2023-03-21T09:10:31;17.95;;;12.82;;
57599;SDS011;43426;43.594;24.334;2023-03-21T09:12:56;14.13;;;12.43;;
57599;SDS011;43426;43.594;24.334;2023-03-21T09:17:52;12.63;;;11.38;;
57599;SDS011;43426;43.594;24.334;2023-03-21T09:20:20;14.32;;;12.45;;
57599;SDS011;43426;43.594;24.334;2023-03-21T09:22:54;17.40;;;11.40;;
57599;SDS011;43426;43.594;24.334;2023-03-21T09:25:21;15.18;;;11.48;;
57599;SDS011;43426;43.594;24.334;2023-03-21T09:27:47;15.18;;;11.55;;
57599;SDS011;43426;43.594;24.334;2023-03-21T09:30:15;17.67;;;11.88;;
57599;SDS011;43426;43.594;24.334;2023-03-21T09:32:41;18.75;;;12.77;;
57599;SDS011;43426;43.594;24.334;2023-03-21T09:35:12;15.23;;;12.18;;
57599;SDS011;43426;43.594;24.334;2023-03-21T09:37:40;13.77;;;10.80;;
57599;SDS011;43426;43.594;24.334;2023-03-21T09:40:13;12.68;;;10.68;;
57599;SDS011;43426;43.594;24.334;2023-03-21T09:49:04;15.05;;;11.95;;
57599;SDS011;43426;43.594;24.334;2023-03-21T09:51:35;22.02;;;12.95;;
57599;SDS011;43426;43.594;24.334;2023-03-21T09:54:12;14.35;;;12.85;;
57599;SDS011;43426;43.594;24.334;2023-03-21T09:56:46;18.25;;;11.80;;
57599;SDS011;43426;43.594;24.334;2023-03-21T09:59:35;12.07;;;10.85;;
57599;SDS011;43426;43.594;24.334;2023-03-21T10:02:15;19.17;;;11.60;;
57599;SDS011;43426;43.594;24.334;2023-03-21T10:04:43;20.08;;;12.20;;
57599;SDS011;43426;43.594;24.334;2023-03-21T10:07:10;15.27;;;11.63;;
57599;SDS011;43426;43.594;24.334;2023-03-21T10:09:42;11.43;;;10.25;;
57599;SDS011;43426;43.594;24.334;2023-03-21T10:12:17;12.70;;;10.60;;
57599;SDS011;43426;43.594;24.334;2023-03-21T10:14:49;10.68;;;9.68;;
57599;SDS011;43426;43.594;24.334;2023-03-21T10:17:34;13.10;;;9.48;;
57599;SDS011;43426;43.594;24.334;2023-03-21T10:22:37;10.50;;;9.45;;
57599;SDS011;43426;43.594;24.334;2023-03-21T10:27:28;12.13;;;10.23;;
57599;SDS011;43426;43.594;24.334;2023-03-21T10:29:55;9.55;;;8.70;;
57599;SDS011;43426;43.594;24.334;2023-03-21T10:34:49;12.75;;;10.55;;
57599;SDS011;43426;43.594;24.334;2023-03-21T10:37:17;12.60;;;8.90;;
57599;SDS011;43426;43.594;24.334;2023-03-21T10:39:44;10.73;;;9.60;;
57599;SDS011;43426;43.594;24.334;2023-03-21T10:42:19;14.70;;;10.27;;
57599;SDS011;43426;43.594;24.334;2023-03-21T10:44:49;16.70;;;10.63;;
57599;SDS011;43426;43.594;24.334;2023-03-21T10:47:20;13.70;;;9.98;;
57599;SDS011;43426;43.594;24.334;2023-03-21T10:49:48;10.57;;;9.52;;
57599;SDS011;43426;43.594;24.334;2023-03-21T10:52:16;11.82;;;10.40;;
57599;SDS011;43426;43.594;24.334;2023-03-21T10:54:43;17.65;;;9.85;;
57599;SDS011;43426;43.594;24.334;2023-03-21T10:57:10;9.13;;;8.20;;
57599;SDS011;43426;43.594;24.334;2023-03-21T10:59:44;18.38;;;11.27;;
57599;SDS011;43426;43.594;24.334;2023-03-21T11:02:17;17.38;;;10.05;;
57599;SDS011;43426;43.594;24.334;2023-03-21T11:04:45;16.15;;;9.57;;
57599;SDS011;43426;43.594;24.334;2023-03-21T11:07:14;16.27;;;8.95;;
57599;SDS011;43426;43.594;24.334;2023-03-21T11:09:47;10.10;;;9.02;;
57599;SDS011;43426;43.594;24.334;2023-03-21T11:12:36;13.45;;;9.05;;
57599;SDS011;43426;43.594;24.334;2023-03-21T11:17:51;10.27;;;8.40;;
57599;SDS011;43426;43.594;24.334;2023-03-21T11:20:17;13.98;;;8.98;;
57599;SDS011;43426;43.594;24.334;2023-03-21T11:22:43;13.57;;;8.88;;
57599;SDS011;43426;43.594;24.334;2023-03-21T11:28:10;8.43;;;6.88;;
57599;SDS011;43426;43.594;24.334;2023-03-21T11:30:48;13.50;;;7.20;;
57599;SDS011;43426;43.594;24.334;2023-03-21T11:33:25;11.55;;;7.50;;
57599;SDS011;43426;43.594;24.334;2023-03-21T11:36:06;8.40;;;7.60;;
57599;SDS011;43426;43.594;24.334;2023-03-21T11:39:01;12.18;;;7.40;;
57599;SDS011;43426;43.594;24.334;2023-03-21T11:41:48;10.93;;;8.15;;
57599;SDS011;43426;43.594;24.334;2023-03-21T11:44:40;8.45;;;7.63;;
57599;SDS011;43426;43.594;24.334;2023-03-21T11:47:08;11.68;;;8.05;;
57599;SDS011;43426;43.594;24.334;2023-03-21T11:49:35;7.70;;;7.00;;
57599;SDS011;43426;43.594;24.334;2023-03-21T12:05:38;15.20;;;13.75;;
57599;SDS011;43426;43.594;24.334;2023-03-21T12:22:06;15.65;;;13.23;;
57599;SDS011;43426;43.594;24.334;2023-03-21T12:24:38;13.95;;;12.75;;
57599;SDS011;43426;43.594;24.334;2023-03-21T12:32:33;14.45;;;12.30;;
57599;SDS011;43426;43.594;24.334;2023-03-21T12:38:31;15.05;;;12.52;;
57599;SDS011;43426;43.594;24.334;2023-03-21T12:41:11;17.02;;;11.98;;
57599;SDS011;43426;43.594;24.334;2023-03-21T12:46:36;12.27;;;11.00;;
57599;SDS011;43426;43.594;24.334;2023-03-21T12:49:17;11.88;;;10.50;;
57599;SDS011;43426;43.594;24.334;2023-03-21T12:51:52;12.10;;;10.90;;
57599;SDS011;43426;43.594;24.334;2023-03-21T12:57:04;14.77;;;10.40;;
57599;SDS011;43426;43.594;24.334;2023-03-21T13:02:31;13.48;;;10.57;;
57599;SDS011;43426;43.594;24.334;2023-03-21T13:07:32;14.82;;;12.85;;
57599;SDS011;43426;43.594;24.334;2023-03-21T13:10:03;16.25;;;14.07;;
57599;SDS011;43426;43.594;24.334;2023-03-21T13:21:10;29.73;;;15.65;;
57599;SDS011;43426;43.594;24.334;2023-03-21T13:23:37;15.77;;;14.00;;
57599;SDS011;43426;43.594;24.334;2023-03-21T13:26:07;18.27;;;15.10;;
57599;SDS011;43426;43.594;24.334;2023-03-21T13:28:35;20.55;;;15.13;;
57599;SDS011;43426;43.594;24.334;2023-03-21T13:31:17;17.58;;;14.68;;
57599;SDS011;43426;43.594;24.334;2023-03-21T13:33:50;18.67;;;14.65;;
57599;SDS011;43426;43.594;24.334;2023-03-21T13:36:25;19.63;;;13.60;;
57599;SDS011;43426;43.594;24.334;2023-03-21T13:38:53;19.95;;;13.48;;
57599;SDS011;43426;43.594;24.334;2023-03-21T13:41:34;19.52;;;14.35;;
57599;SDS011;43426;43.594;24.334;2023-03-21T13:48:55;21.33;;;13.82;;
57599;SDS011;43426;43.594;24.334;2023-03-21T13:54:02;22.42;;;15.48;;
57599;SDS011;43426;43.594;24.334;2023-03-21T13:57:04;23.20;;;15.70;;
57599;SDS011;43426;43.594;24.334;2023-03-21T13:59:40;18.58;;;14.95;;
57599;SDS011;43426;43.594;24.334;2023-03-21T14:04:39;19.13;;;15.25;;
57599;SDS011;43426;43.594;24.334;2023-03-21T14:07:09;21.13;;;15.50;;
57599;SDS011;43426;43.594;24.334;2023-03-21T14:09:41;25.40;;;15.65;;
57599;SDS011;43426;43.594;24.334;2023-03-21T14:12:12;28.52;;;15.35;;
57599;SDS011;43426;43.594;24.334;2023-03-21T14:14:42;21.52;;;14.90;;
57599;SDS011;43426;43.594;24.334;2023-03-21T14:17:12;26.73;;;16.90;;
57599;SDS011;43426;43.594;24.334;2023-03-21T14:19:52;25.65;;;16.55;;
57599;SDS011;43426;43.594;24.334;2023-03-21T14:22:18;25.92;;;16.80;;
57599;SDS011;43426;43.594;24.334;2023-03-21T14:27:13;25.00;;;17.58;;
57599;SDS011;43426;43.594;24.334;2023-03-21T14:29:39;24.85;;;17.73;;
57599;SDS011;43426;43.594;24.334;2023-03-21T14:32:05;23.63;;;17.67;;
57599;SDS011;43426;43.594;24.334;2023-03-21T14:34:38;24.45;;;18.08;;
57599;SDS011;43426;43.594;24.334;2023-03-21T14:37:09;45.03;;;19.38;;
57599;SDS011;43426;43.594;24.334;2023-03-21T14:39:35;32.15;;;19.00;;
57599;SDS011;43426;43.594;24.334;2023-03-21T14:44:39;29.25;;;19.33;;
57599;SDS011;43426;43.594;24.334;2023-03-21T14:47:18;32.63;;;20.25;;
57599;SDS011;43426;43.594;24.334;2023-03-21T14:49:45;34.67;;;19.50;;
57599;SDS011;43426;43.594;24.334;2023-03-21T14:52:15;27.70;;;19.02;;
57599;SDS011;43426;43.594;24.334;2023-03-21T14:54:45;27.25;;;19.88;;
57599;SDS011;43426;43.594;24.334;2023-03-21T14:57:16;26.95;;;19.23;;
57599;SDS011;43426;43.594;24.334;2023-03-21T14:59:46;28.63;;;17.73;;
57599;SDS011;43426;43.594;24.334;2023-03-21T15:02:25;25.75;;;19.55;;
57599;SDS011;43426;43.594;24.334;2023-03-21T15:04:54;27.35;;;19.60;;
57599;SDS011;43426;43.594;24.334;2023-03-21T15:07:26;29.20;;;18.95;;
57599;SDS011;43426;43.594;24.334;2023-03-21T15:10:07;33.97;;;20.10;;
57599;SDS011;43426;43.594;24.334;2023-03-21T15:12:48;30.77;;;20.85;;
57599;SDS011;43426;43.594;24.334;2023-03-21T15:15:19;35.03;;;20.40;;
57599;SDS011;43426;43.594;24.334;2023-03-21T15:17:46;33.78;;;20.95;;
57599;SDS011;43426;43.594;24.334;2023-03-21T15:20:14;34.38;;;22.17;;
57599;SDS011;43426;43.594;24.334;2023-03-21T15:22:42;30.88;;;22.05;;
57599;SDS011;43426;43.594;24.334;2023-03-21T15:25:13;32.47;;;22.10;;
57599;SDS011;43426;43.594;24.334;2023-03-21T15:27:43;31.73;;;22.73;;
57599;SDS011;43426;43.594;24.334;2023-03-21T15:32:45;35.45;;;23.48;;
57599;SDS011;43426;43.594;24.334;2023-03-21T15:37:38;36.83;;;21.17;;
57599;SDS011;43426;43.594;24.334;2023-03-21T15:42:49;38.70;;;22.08;;
57599;SDS011;43426;43.594;24.334;2023-03-21T15:45:22;35.45;;;21.73;;
57599;SDS011;43426;43.594;24.334;2023-03-21T15:47:51;33.75;;;22.45;;
57599;SDS011;43426;43.594;24.334;2023-03-21T15:52:50;33.10;;;20.40;;
57599;SDS011;43426;43.594;24.334;2023-03-21T15:55:22;34.63;;;21.75;;
57599;SDS011;43426;43.594;24.334;2023-03-21T15:58:13;33.95;;;21.95;;
57599;SDS011;43426;43.594;24.334;2023-03-21T16:00:43;33.00;;;21.65;;
57599;SDS011;43426;43.594;24.334;2023-03-21T16:03:15;38.05;;;21.92;;
57599;SDS011;43426;43.594;24.334;2023-03-21T16:05:42;29.10;;;21.63;;
57599;SDS011;43426;43.594;24.334;2023-03-21T16:08:50;30.52;;;21.02;;
57599;SDS011;43426;43.594;24.334;2023-03-21T16:13:53;32.42;;;22.25;;
57599;SDS011;43426;43.594;24.334;2023-03-21T16:16:21;29.70;;;21.73;;
57599;SDS011;43426;43.594;24.334;2023-03-21T16:18:47;31.10;;;22.60;;
57599;SDS011;43426;43.594;24.334;2023-03-21T16:21:13;40.60;;;25.27;;
57599;SDS011;43426;43.594;24.334;2023-03-21T16:23:40;31.65;;;24.38;;
57599;SDS011;43426;43.594;24.334;2023-03-21T16:26:09;38.35;;;24.60;;
57599;SDS011;43426;43.594;24.334;2023-03-21T16:28:37;36.38;;;24.00;;
57599;SDS011;43426;43.594;24.334;2023-03-21T16:31:02;35.03;;;24.17;;
57599;SDS011;43426;43.594;24.334;2023-03-21T16:35:53;39.67;;;24.77;;
57599;SDS011;43426;43.594;24.334;2023-03-21T16:38:21;39.83;;;25.02;;
57599;SDS011;43426;43.594;24.334;2023-03-21T16:40:47;42.88;;;28.63;;
57599;SDS011;43426;43.594;24.334;2023-03-21T16:45:38;72.25;;;28.25;;
57599;SDS011;43426;43.594;24.334;2023-03-21T16:50:33;50.67;;;27.65;;
57599;SDS011;43426;43.594;24.334;2023-03-21T16:53:00;46.53;;;26.20;;
57599;SDS011;43426;43.594;24.334;2023-03-21T16:55:27;48.88;;;28.20;;
57599;SDS011;43426;43.594;24.334;2023-03-21T17:00:20;44.30;;;27.85;;
57599;SDS011;43426;43.594;24.334;2023-03-21T17:02:51;70.13;;;38.90;;
57599;SDS011;43426;43.594;24.334;2023-03-21T17:05:19;84.88;;;49.75;;
57599;SDS011;43426;43.594;24.334;2023-03-21T17:07:45;76.15;;;43.60;;
57599;SDS011;43426;43.594;24.334;2023-03-21T17:10:15;69.45;;;41.55;;
57599;SDS011;43426;43.594;24.334;2023-03-21T17:12:48;70.03;;;39.45;;
57599;SDS011;43426;43.594;24.334;2023-03-21T17:15:14;52.08;;;31.88;;
57599;SDS011;43426;43.594;24.334;2023-03-21T17:17:41;45.90;;;30.15;;
57599;SDS011;43426;43.594;24.334;2023-03-21T17:20:20;46.33;;;29.17;;
57599;SDS011;43426;43.594;24.334;2023-03-21T17:22:48;41.42;;;27.38;;
57599;SDS011;43426;43.594;24.334;2023-03-21T17:25:15;38.95;;;26.05;;
57599;SDS011;43426;43.594;24.334;2023-03-21T17:27:41;39.17;;;25.83;;
57599;SDS011;43426;43.594;24.334;2023-03-21T17:30:13;46.17;;;26.45;;
57599;SDS011;43426;43.594;24.334;2023-03-21T17:32:44;41.28;;;27.02;;
57599;SDS011;43426;43.594;24.334;2023-03-21T17:35:09;44.47;;;27.05;;
57599;SDS011;43426;43.594;24.334;2023-03-21T17:40:02;46.25;;;30.17;;